This is the latest recevied weather packets stored in our database for station/object CT2IRJ-11. If no packets are shown the sender has not sent any weather packets the latest 10 day(s).
| Time | Temp. | Humidity | Pressure | Rain* | Wind** | Luminosity | Snow |
|---|---|---|---|---|---|---|---|
| 1777633110 | 22.22° C | 53% | 1019.6 hPa | 0 mm | - | 633 W/m² | - |
| 1777632809 | 21.67° C | 56% | 1019.6 hPa | 0 mm | - | 555 W/m² | - |
| 1777632509 | 22.22° C | 53% | 1019.3 hPa | 0 mm | - | 691 W/m² | - |
| 1777632209 | 22.22° C | 52% | 1019.3 hPa | 0 mm | - | 710 W/m² | - |
| 1777631910 | 22.22° C | 54% | 1019.3 hPa | 0 mm | - | 706 W/m² | - |
| 1777631609 | 21.67° C | 54% | 1019.3 hPa | 0 mm | - | 767 W/m² | - |
| 1777631309 | 21.11° C | 57% | 1019.3 hPa | 0 mm | - | 714 W/m² | - |
| 1777631009 | 21.67° C | 55% | 1019.3 hPa | 0 mm | - | 711 W/m² | - |
| 1777630709 | 21.11° C | 58% | 1019.3 hPa | 0 mm | - | 762 W/m² | - |
| 1777630410 | 21.67° C | 54% | 1019.3 hPa | 0 mm | - | 741 W/m² | - |
| 1777630109 | 21.67° C | 55% | 1019.3 hPa | 0 mm | - | 651 W/m² | - |
| 1777629810 | 21.67° C | 56% | 1019.3 hPa | 0 mm | - | 608 W/m² | - |
| 1777629510 | 22.78° C | 54% | 1019.3 hPa | 0 mm | - | 704 W/m² | - |
| 1777629209 | 21.11° C | 58% | 1019.3 hPa | 0 mm | - | 664 W/m² | - |
| 1777628910 | 20.56° C | 60% | 1019.3 hPa | 0 mm | - | 636 W/m² | - |
| 1777628610 | 21.67° C | 56% | 1019.3 hPa | 0 mm | - | 586 W/m² | - |
| 1777628310 | 20.56° C | 58% | 1019.3 hPa | 0 mm | - | 721 W/m² | - |
| 1777628009 | 21.11° C | 60% | 1019.3 hPa | 0 mm | - | 689 W/m² | - |
| 1777627709 | 21.11° C | 59% | 1019.3 hPa | 0 mm | - | 659 W/m² | - |
| 1777627411 | 20° C | 61% | 1019.6 hPa | 0 mm | - | 630 W/m² | - |
| 1777627110 | 20° C | 64% | 1019.3 hPa | 0 mm | - | 600 W/m² | - |
| 1777626810 | 19.44° C | 67% | 1019.3 hPa | 0 mm | - | 234 W/m² | - |
| 1777626509 | 17.78° C | 70% | 1019.6 hPa | 0 mm | - | 492 W/m² | - |
| 1777626209 | 18.33° C | 71% | 1019.6 hPa | 0 mm | - | 295 W/m² | - |
| 1777625909 | 17.78° C | 73% | 1019.6 hPa | 0 mm | - | 424 W/m² | - |
* Rain latest hour (hover to see other rain measurements)
** Current wind speed in m/s (hover to see current wind gust speed)